Grants, NM

10:27 PM MDT on September 14, 2014 (GMT -0600)
Grants-Milan Municipal | Change Station
CLOSE
Current Station
Airport
Location: Grants-Milan,
Elevation: 6519 ft
Nearby Weather Stations

Elev 6519 ft 35.17 °N, 107.90 °W | Updated 11 minutes ago

Mostly Cloudy
Mostly Cloudy
64 °F
Feels Like 64 °F
N
5
Wind Variable Wind from SSE

Today
High -- | Low -- °F
--% Chance of Precip.
Yesterday
High -- | Low -- °F
Precip. -- in
6:53 AM 7:19 PM
Waning Gibbous, 59% visible
Pressure 30.27 in
Visibility 10.0 miles
Clouds Scattered Clouds 11000 ft
Dew Point 52 °F
Humidity 64%
Rainfall 0.00 in
Snow Depth 3 in , 0 in , 0 in
UV 0 out of 12
Pollen 7.80 out of 12
Air Quality Not available.
Flu Activity Not available.
METAR KGNT 150416Z AUTO 16004KT 10SM SCT110 18/11 A3027 RMK AO2

More Conditions Fewer Conditions

Pressure 30.27 in
Visibility 10.0 miles
Clouds Scattered Clouds 11000 ft
Dew Point 52 °F
Humidity 64%
Rainfall 0.00 in
Snow Depth 3 in , 0 in , 0 in
UV 0 out of 12
Pollen 7.80 out of 12
Air Quality Not available.
Flu Activity Not available.
METAR KGNT 150416Z AUTO 16004KT 10SM SCT110 18/11 A3027 RMK AO2

More Conditions Fewer Conditions

Nowcast | as of 9:43 PM MDT on September 14, 2014

Isolated showers and thunderstorms will continue over portions of western New Mexico for the remainder of the evening. Storms will mainly favor areas along and west of the Continental Divide. Expect brief moderate to heavy downpours...erratic and gusty winds... and a few cloud to ground lightning with any storm. Rainfall amounts will generally range between one and three tenths of an inch under the stronger storms...although some locally higher amounts are possible. Some areas which may be impacted include Old Horse Springs...the very large array...Thoreau...El Morro and Chi Chil Tah. Fast flowing water may exist in normally dry arroyos...creek beds...and low water crossings due to thunderstorm rains.

×

10-Day Weather Forecast

Almanac

Astronomy

Sep. 14, 2014 Rise Set
Actual Time 6:53 AM MDT 7:19 PM MDT
Civil Twilight 6:27 AM MDT 7:45 PM MDT
Nautical Twilight 5:57 AM MDT 8:15 PM MDT
Astronomical Twilight 5:27 AM MDT 8:45 PM MDT
Moon 11:27 PM MDT (9/14) 12:50 PM MDT (9/14)
Length of Visible Light 13h 17m
Length of Day
12h 26m
Tomorrow will be 2m 11s shorter.
Waning Gibbous, 59% of the Moon is Illuminated
Sep 15
Waning Gibbous
Sep 15
Last Quarter
Sep 24
New
Oct 1
First Quarter
Oct 8
Full

Today's Extremes

State Highs State Lows

Community

WunderPhotos

Upload Photos

1,753,400 photos uploaded!

Nearby

Snow Depth

Station Depth Elevation
Wesner Springs 3 in 11120 ft
Gallegos Peak 0 in 9800 ft
Rice Park 0 in 8460 ft
Red River Pass #2 0 in 9850 ft
Quemazon 1 in 9500 ft

Earthquake Activity

City Distance Mag. Time & Date
No recent earthquake activity has been reported nearby.
Minimum magnitude displayed is 2.5.

Coastal Water Temperatures

Place Temperature
No Stations Reporting

Nearby Weather Stations